createdAt,value
2022-08-20T00:00:13.094Z,92.99
2022-08-20T00:01:13.386Z,93.04
2022-08-20T00:02:13.463Z,93.09
2022-08-20T00:03:13.638Z,93.07
2022-08-20T00:04:13.646Z,93.01
2022-08-20T00:05:13.772Z,92.93
2022-08-20T00:06:13.880Z,92.93
2022-08-20T00:07:13.972Z,92.98
2022-08-20T00:08:14.185Z,92.99
2022-08-20T00:09:14.243Z,92.96
2022-08-20T00:10:14.343Z,92.90
2022-08-20T00:11:14.467Z,92.88
2022-08-20T00:12:14.531Z,92.90
2022-08-20T00:13:16.157Z,92.98
2022-08-20T00:14:14.802Z,93.04
2022-08-20T00:15:14.960Z,93.08
2022-08-20T00:16:15.131Z,93.10
2022-08-20T00:17:15.158Z,93.06
2022-08-20T00:18:15.430Z,93.01
2022-08-20T00:19:15.460Z,93.03
2022-08-20T00:20:15.590Z,93.07
2022-08-20T00:21:19.050Z,93.04
2022-08-20T00:22:15.827Z,92.98
2022-08-20T00:23:16.078Z,92.98
2022-08-20T00:24:16.181Z,92.97
2022-08-20T00:25:16.159Z,93.00
2022-08-20T00:26:16.308Z,93.01
2022-08-20T00:27:16.439Z,93.02
2022-08-20T00:28:16.729Z,93.05
2022-08-20T00:29:16.728Z,93.07
2022-08-20T00:30:16.800Z,93.06
2022-08-20T00:31:16.949Z,93.10
2022-08-20T00:32:17.098Z,93.08
2022-08-20T00:33:17.509Z,93.01
2022-08-20T00:34:17.380Z,93.00
2022-08-20T00:35:17.528Z,92.98
2022-08-20T00:36:17.664Z,93.00
2022-08-20T00:37:17.737Z,93.03
2022-08-20T00:38:17.935Z,93.02
2022-08-20T00:39:18.098Z,93.03
2022-08-20T00:40:22.195Z,93.10
2022-08-20T00:41:18.247Z,93.19
2022-08-20T00:42:18.387Z,93.22
2022-08-20T00:43:18.638Z,93.21
2022-08-20T00:44:18.681Z,93.09
2022-08-20T00:45:18.832Z,93.04
2022-08-20T00:46:18.906Z,93.09
2022-08-20T00:47:19.056Z,93.13
2022-08-20T00:48:19.156Z,93.17
2022-08-20T00:49:19.269Z,93.17
2022-08-20T00:50:19.356Z,93.20
2022-08-20T00:51:19.453Z,93.23
2022-08-20T00:52:19.585Z,93.26
2022-08-20T00:53:19.838Z,93.25
2022-08-20T00:54:19.965Z,93.24
2022-08-20T00:55:19.961Z,93.22
2022-08-20T00:56:20.186Z,93.23
2022-08-20T00:57:20.185Z,93.25
2022-08-20T00:58:20.474Z,93.29
2022-08-20T00:59:20.454Z,93.32
2022-08-20T01:00:20.606Z,93.32
2022-08-20T01:01:20.715Z,93.32
2022-08-20T01:02:20.863Z,93.35
2022-08-20T01:03:21.036Z,93.33
2022-08-20T01:04:21.253Z,93.36
2022-08-20T01:05:21.272Z,93.43
2022-08-20T01:06:22.392Z,93.48
2022-08-20T01:07:21.661Z,93.51
2022-08-20T01:08:21.641Z,93.53
2022-08-20T01:09:50.369Z,93.54
2022-08-20T01:10:22.861Z,93.54
2022-08-20T01:11:21.991Z,93.53
2022-08-20T01:12:22.142Z,93.54
2022-08-20T01:13:22.282Z,93.55
2022-08-20T01:14:22.681Z,93.55
2022-08-20T01:15:22.513Z,93.49
2022-08-20T01:16:24.243Z,93.52
2022-08-20T01:17:22.762Z,93.54
2022-08-20T01:18:22.919Z,93.58
2022-08-20T01:19:29.587Z,93.56
2022-08-20T01:20:24.224Z,93.55
2022-08-20T01:21:23.260Z,93.55
2022-08-20T01:22:23.361Z,93.57
2022-08-20T01:23:23.450Z,93.62
2022-08-20T01:24:23.590Z,93.64
2022-08-20T01:25:23.964Z,93.57
2022-08-20T01:26:23.829Z,93.51
2022-08-20T01:27:23.920Z,93.51
2022-08-20T01:28:24.049Z,93.51
2022-08-20T01:29:24.217Z,93.54
2022-08-20T01:30:24.369Z,93.59
2022-08-20T01:31:24.420Z,93.62
2022-08-20T01:32:24.558Z,93.64
2022-08-20T01:33:24.721Z,93.61
2022-08-20T01:34:24.812Z,93.65
2022-08-20T01:35:24.958Z,93.66
2022-08-20T01:36:25.231Z,93.72
2022-08-20T01:37:25.098Z,93.77
2022-08-20T01:38:26.200Z,93.85
2022-08-20T01:39:25.339Z,93.88
2022-08-20T01:40:25.547Z,93.85
2022-08-20T01:41:28.577Z,93.84
2022-08-20T01:42:25.668Z,93.84
2022-08-20T01:43:25.817Z,93.84
2022-08-20T01:44:25.925Z,93.87
2022-08-20T01:45:26.874Z,93.85
2022-08-20T01:46:26.341Z,93.76
2022-08-20T01:47:26.315Z,93.74
2022-08-20T01:48:26.457Z,93.67
2022-08-20T01:49:26.606Z,93.66
2022-08-20T01:50:26.770Z,93.66
2022-08-20T01:51:26.956Z,93.59
2022-08-20T01:52:27.008Z,93.51
2022-08-20T01:53:27.115Z,93.53
2022-08-20T01:54:27.275Z,93.50
2022-08-20T01:55:27.395Z,93.50
2022-08-20T01:56:27.665Z,93.56
2022-08-20T01:57:27.597Z,93.62
2022-08-20T01:58:27.743Z,93.65
2022-08-20T01:59:27.875Z,93.63
2022-08-20T02:00:28.054Z,93.63
2022-08-20T02:01:28.234Z,93.66
2022-08-20T02:02:28.334Z,93.71
2022-08-20T02:03:28.375Z,93.76
2022-08-20T02:04:28.515Z,93.83
2022-08-20T02:05:30.581Z,93.82
2022-08-20T02:06:28.824Z,93.74
2022-08-20T02:07:28.977Z,93.71
2022-08-20T02:08:29.067Z,93.74
2022-08-20T02:09:29.174Z,93.73
2022-08-20T02:10:31.564Z,93.68
2022-08-20T02:11:29.503Z,93.70
2022-08-20T02:12:29.544Z,93.75
2022-08-20T02:13:29.634Z,93.75
2022-08-20T02:14:29.774Z,93.74
2022-08-20T02:15:35.202Z,93.81
2022-08-20T02:16:31.205Z,93.82
2022-08-20T02:17:30.221Z,93.81
2022-08-20T02:18:30.251Z,93.77
2022-08-20T02:19:30.372Z,93.72
2022-08-20T02:20:30.471Z,93.61
2022-08-20T02:21:30.601Z,93.66
2022-08-20T02:22:30.972Z,93.72
2022-08-20T02:23:30.841Z,93.74
2022-08-20T02:24:30.992Z,93.79
2022-08-20T02:25:31.150Z,93.79
2022-08-20T02:26:31.251Z,93.82
2022-08-20T02:27:31.514Z,93.83
2022-08-20T02:28:31.484Z,93.75
2022-08-20T02:29:31.640Z,93.69
2022-08-20T02:30:31.778Z,93.76
2022-08-20T02:31:34.919Z,93.82
2022-08-20T02:32:34.105Z,93.79
2022-08-20T02:33:32.210Z,93.75
2022-08-20T02:34:32.259Z,93.72
2022-08-20T02:35:32.421Z,93.69
2022-08-20T02:36:32.585Z,93.73
2022-08-20T02:37:32.894Z,93.75
2022-08-20T02:38:32.769Z,93.68
2022-08-20T02:39:33.027Z,93.71
2022-08-20T02:40:33.088Z,93.60
2022-08-20T02:41:33.187Z,93.68
2022-08-20T02:42:33.423Z,93.77
2022-08-20T02:43:33.412Z,93.78
2022-08-20T02:44:33.546Z,93.72
2022-08-20T02:45:33.705Z,93.81
2022-08-20T02:46:33.798Z,93.78
2022-08-20T02:47:34.148Z,93.81
2022-08-20T02:48:34.099Z,93.85
2022-08-20T02:49:34.079Z,93.85
2022-08-20T02:50:34.225Z,93.75
2022-08-20T02:51:34.357Z,93.69
2022-08-20T02:52:34.529Z,93.77
2022-08-20T02:53:34.636Z,93.80
2022-08-20T02:54:34.744Z,93.85
2022-08-20T02:55:34.846Z,93.88
2022-08-20T02:56:35.014Z,93.88
2022-08-20T02:57:35.195Z,93.94
2022-08-20T02:58:35.203Z,94.01
2022-08-20T02:59:35.296Z,94.09
2022-08-20T03:00:38.292Z,94.01
2022-08-20T03:01:35.668Z,93.98
2022-08-20T03:02:35.635Z,93.98
2022-08-20T03:03:35.824Z,93.94
2022-08-20T03:04:35.866Z,93.87
2022-08-20T03:05:36.035Z,93.80
2022-08-20T03:06:36.253Z,93.85
2022-08-20T03:07:36.254Z,93.78
2022-08-20T03:08:36.533Z,93.80
2022-08-20T03:09:36.474Z,93.76
2022-08-20T03:10:36.564Z,93.73
2022-08-20T03:11:36.714Z,93.66
2022-08-20T03:12:36.804Z,93.67
2022-08-20T03:13:37.093Z,93.71
2022-08-20T03:14:37.083Z,93.74
2022-08-20T03:15:37.246Z,93.78
2022-08-20T03:16:37.441Z,93.80
2022-08-20T03:17:37.503Z,93.85
2022-08-20T03:18:37.752Z,93.85
2022-08-20T03:19:37.867Z,93.82
2022-08-20T03:20:37.853Z,93.77
2022-08-20T03:21:37.992Z,93.77
2022-08-20T03:22:38.087Z,93.85
2022-08-20T03:23:38.313Z,93.84
2022-08-20T03:24:38.389Z,93.92
2022-08-20T03:25:38.441Z,94.00
2022-08-20T03:26:38.591Z,93.97
2022-08-20T03:27:38.681Z,93.92
2022-08-20T03:28:38.881Z,93.77
2022-08-20T03:29:38.930Z,93.63
2022-08-20T03:30:39.031Z,93.67
2022-08-20T03:31:39.162Z,93.79
2022-08-20T03:32:39.310Z,93.88
2022-08-20T03:33:39.519Z,93.71
2022-08-20T03:34:40.568Z,93.63
2022-08-20T03:35:39.709Z,93.70
2022-08-20T03:36:39.849Z,93.74
2022-08-20T03:37:39.949Z,93.68
2022-08-20T03:38:41.130Z,93.69
2022-08-20T03:39:40.358Z,93.64
2022-08-20T03:40:40.310Z,93.58
2022-08-20T03:41:40.438Z,93.58
2022-08-20T03:42:40.560Z,93.56
2022-08-20T03:43:40.661Z,93.59
2022-08-20T03:44:41.037Z,93.68
2022-08-20T03:45:40.939Z,93.67
2022-08-20T03:46:41.057Z,93.56
2022-08-20T03:47:41.157Z,93.57
2022-08-20T03:48:41.332Z,93.49
2022-08-20T03:49:41.568Z,93.43
2022-08-20T03:50:41.581Z,93.58
2022-08-20T03:51:56.346Z,93.51
2022-08-20T03:52:42.799Z,93.55
2022-08-20T03:53:41.915Z,93.53
2022-08-20T03:54:42.155Z,93.55
2022-08-20T03:55:42.206Z,93.51
2022-08-20T03:56:42.707Z,93.62
2022-08-20T03:57:42.434Z,93.71
2022-08-20T03:58:42.517Z,93.80
2022-08-20T03:59:42.692Z,93.86
2022-08-20T04:00:42.816Z,93.87
2022-08-20T04:01:44.949Z,93.83
2022-08-20T04:02:43.245Z,93.90
2022-08-20T04:03:43.166Z,93.98
2022-08-20T04:04:43.313Z,93.99
2022-08-20T04:05:43.471Z,93.60
2022-08-20T04:06:43.659Z,93.30
2022-08-20T04:07:43.705Z,93.33
2022-08-20T04:08:43.822Z,93.35
2022-08-20T04:09:44.038Z,93.50
2022-08-20T04:10:44.025Z,93.50
2022-08-20T04:11:44.253Z,93.42
2022-08-20T04:12:52.744Z,93.50
2022-08-20T04:13:45.424Z,93.57
2022-08-20T04:14:44.563Z,93.52
2022-08-20T04:15:44.675Z,93.54
2022-08-20T04:16:45.021Z,93.64
2022-08-20T04:17:44.884Z,93.73
2022-08-20T04:19:02.090Z,93.77
2022-08-20T04:19:46.149Z,93.77
2022-08-20T04:20:45.274Z,93.78
2022-08-20T04:21:45.474Z,93.72
2022-08-20T04:22:58.478Z,93.69
2022-08-20T04:23:46.654Z,93.30
2022-08-20T04:24:45.752Z,93.28
2022-08-20T04:25:45.852Z,93.29
2022-08-20T04:26:46.010Z,93.46
2022-08-20T04:27:46.104Z,93.48
2022-08-20T04:28:46.201Z,93.19
2022-08-20T04:29:46.311Z,93.12
2022-08-20T04:30:48.119Z,93.18
2022-08-20T04:31:47.671Z,93.19
2022-08-20T04:32:46.635Z,93.31
2022-08-20T04:33:46.770Z,93.40
2022-08-20T04:34:47.353Z,93.44
2022-08-20T04:35:47.030Z,93.52
2022-08-20T04:36:47.211Z,93.49
2022-08-20T04:37:47.375Z,93.40
2022-08-20T04:38:50.662Z,93.13
2022-08-20T04:39:47.801Z,93.22
2022-08-20T04:40:47.677Z,93.16
2022-08-20T04:41:47.779Z,93.22
2022-08-20T04:42:47.919Z,93.15
2022-08-20T04:43:49.039Z,93.20
2022-08-20T04:44:48.240Z,93.30
2022-08-20T04:45:48.400Z,93.35
2022-08-20T04:46:48.379Z,93.43
2022-08-20T04:47:48.528Z,93.52
2022-08-20T04:48:50.336Z,93.46
2022-08-20T04:49:48.870Z,93.42
2022-08-20T04:50:48.867Z,93.44
2022-08-20T04:51:48.989Z,93.49
2022-08-20T04:52:49.089Z,93.35
2022-08-20T04:53:51.994Z,93.24
2022-08-20T04:54:49.345Z,93.28
2022-08-20T04:55:49.435Z,93.38
2022-08-20T04:56:49.626Z,93.39
2022-08-20T04:57:49.722Z,93.41
2022-08-20T04:58:49.977Z,93.23
2022-08-20T04:59:49.917Z,93.29
2022-08-20T05:00:50.054Z,93.36
2022-08-20T05:01:50.130Z,93.25
2022-08-20T05:02:50.215Z,93.32
2022-08-20T05:03:50.525Z,93.42
2022-08-20T05:04:50.474Z,93.47
2022-08-20T05:05:50.615Z,93.43
2022-08-20T05:06:50.785Z,93.43
2022-08-20T05:07:50.928Z,93.45
2022-08-20T05:08:51.163Z,93.53
2022-08-20T05:09:51.204Z,93.57
2022-08-20T05:10:51.255Z,93.52
2022-08-20T05:11:52.374Z,93.48
2022-08-20T05:12:56.693Z,93.49
2022-08-20T05:13:52.834Z,93.55
2022-08-20T05:14:51.704Z,93.59
2022-08-20T05:15:51.852Z,93.44
2022-08-20T05:16:52.043Z,93.45
2022-08-20T05:17:52.176Z,93.47
2022-08-20T05:18:52.730Z,93.48
2022-08-20T05:19:52.451Z,93.43
2022-08-20T05:20:52.523Z,93.47
2022-08-20T05:21:52.622Z,93.36
2022-08-20T05:22:52.702Z,93.19
2022-08-20T05:23:52.980Z,93.25
2022-08-20T05:24:53.133Z,93.38
2022-08-20T05:25:53.143Z,93.43
2022-08-20T05:26:53.191Z,93.27
2022-08-20T05:27:53.297Z,93.24
2022-08-20T05:28:58.080Z,93.23
2022-08-20T05:29:54.517Z,93.33
2022-08-20T05:30:53.650Z,93.47
2022-08-20T05:31:53.761Z,93.55
2022-08-20T05:32:53.861Z,93.59
2022-08-20T05:33:54.060Z,93.58
2022-08-20T05:34:54.115Z,93.45
2022-08-20T05:35:54.258Z,93.42
2022-08-20T05:36:56.930Z,93.46
2022-08-20T05:37:54.568Z,93.41
2022-08-20T05:38:54.663Z,93.47
2022-08-20T05:39:54.939Z,93.37
2022-08-20T05:40:54.869Z,93.34
2022-08-20T05:41:55.018Z,93.50
2022-08-20T05:42:55.109Z,93.60
2022-08-20T05:43:55.209Z,93.45
2022-08-20T05:44:55.589Z,93.49
2022-08-20T05:45:56.782Z,93.58
2022-08-20T05:46:55.599Z,93.25
2022-08-20T05:47:56.608Z,93.02
2022-08-20T05:48:55.827Z,92.98
2022-08-20T05:49:55.968Z,93.09
2022-08-20T05:50:56.160Z,93.21
2022-08-20T05:51:56.175Z,93.02
2022-08-20T05:52:56.306Z,92.56
2022-08-20T05:53:57.438Z,92.65
2022-08-20T05:54:56.663Z,92.81
2022-08-20T05:55:56.721Z,92.90
2022-08-20T05:56:56.888Z,93.00
2022-08-20T05:57:57.023Z,92.64
2022-08-20T05:58:57.076Z,92.26
2022-08-20T05:59:57.366Z,92.37
2022-08-20T06:00:57.381Z,92.54
2022-08-20T06:01:57.446Z,92.72
2022-08-20T06:02:57.605Z,92.42
2022-08-20T06:03:57.778Z,92.08
2022-08-20T06:04:57.924Z,92.09
2022-08-20T06:05:57.966Z,92.32
2022-08-20T06:06:58.089Z,92.56
2022-08-20T06:07:58.316Z,92.71
2022-08-20T06:08:59.414Z,92.22
2022-08-20T06:09:58.513Z,92.18
2022-08-20T06:10:58.563Z,92.30
2022-08-20T06:11:59.160Z,92.30
2022-08-20T06:12:58.839Z,92.31
2022-08-20T06:13:58.923Z,92.13
2022-08-20T06:14:59.052Z,92.35
2022-08-20T06:15:59.265Z,92.20
2022-08-20T06:16:59.272Z,92.06
2022-08-20T06:17:59.565Z,92.21
2022-08-20T06:18:59.956Z,92.02
2022-08-20T06:19:59.773Z,91.76
2022-08-20T06:20:59.704Z,91.78
2022-08-20T06:21:59.890Z,91.82
2022-08-20T06:23:00.030Z,91.97
2022-08-20T06:24:02.269Z,91.61
2022-08-20T06:25:00.362Z,91.99
2022-08-20T06:26:00.401Z,92.13
2022-08-20T06:27:00.700Z,92.21
2022-08-20T06:28:00.691Z,92.22
2022-08-20T06:29:00.843Z,92.17
2022-08-20T06:30:01.067Z,92.15
2022-08-20T06:31:01.060Z,92.17
2022-08-20T06:32:01.319Z,92.20
2022-08-20T06:33:01.352Z,92.39
2022-08-20T06:34:01.438Z,92.46
2022-08-20T06:35:01.566Z,92.49
2022-08-20T06:36:01.659Z,92.47
2022-08-20T06:37:02.071Z,92.26
2022-08-20T06:38:01.919Z,92.24
2022-08-20T06:39:02.038Z,92.24
2022-08-20T06:40:02.174Z,92.38
2022-08-20T06:41:02.280Z,92.49
2022-08-20T06:42:02.570Z,92.17
2022-08-20T06:43:02.509Z,92.05
2022-08-20T06:44:02.655Z,91.78
2022-08-20T06:45:02.782Z,91.76
2022-08-20T06:46:02.905Z,91.46
2022-08-20T06:47:03.169Z,91.06
2022-08-20T06:48:03.279Z,90.59
2022-08-20T06:49:03.217Z,90.25
2022-08-20T06:50:03.330Z,90.53
2022-08-20T06:51:03.458Z,89.93
2022-08-20T06:52:03.686Z,89.99
2022-08-20T06:53:04.722Z,89.84
2022-08-20T06:54:03.825Z,90.20
2022-08-20T06:55:03.995Z,89.51
2022-08-20T06:56:04.110Z,89.49
2022-08-20T06:57:04.375Z,89.65
2022-08-20T06:58:04.528Z,89.87
2022-08-20T06:59:04.696Z,89.61
2022-08-20T07:00:04.575Z,89.13
2022-08-20T07:01:09.559Z,89.20
2022-08-20T07:02:05.892Z,89.45
2022-08-20T07:03:04.997Z,89.64
2022-08-20T07:04:05.062Z,89.92
2022-08-20T07:05:05.155Z,90.12
2022-08-20T07:06:05.303Z,89.98
2022-08-20T07:07:05.423Z,90.22
2022-08-20T07:08:05.613Z,90.20
2022-08-20T07:09:05.673Z,89.20
2022-08-20T07:10:05.913Z,89.45
2022-08-20T07:11:06.144Z,89.15
2022-08-20T07:12:06.074Z,88.68
2022-08-20T07:13:06.182Z,88.91
2022-08-20T07:14:06.285Z,88.87
2022-08-20T07:15:06.402Z,88.63
2022-08-20T07:16:06.743Z,88.77
2022-08-20T07:17:06.642Z,88.54
2022-08-20T07:18:07.772Z,89.09
2022-08-20T07:19:06.933Z,89.23
2022-08-20T07:20:07.006Z,89.12
2022-08-20T07:21:07.271Z,88.89
2022-08-20T07:22:07.421Z,88.58
2022-08-20T07:23:07.350Z,88.92
2022-08-20T07:24:07.500Z,88.51
2022-08-20T07:25:07.611Z,88.12
2022-08-20T07:26:07.931Z,88.18
2022-08-20T07:27:07.889Z,88.41
2022-08-20T07:28:08.106Z,88.24
2022-08-20T07:29:08.151Z,88.22
2022-08-20T07:30:12.742Z,88.05
2022-08-20T07:31:13.181Z,88.41
2022-08-20T07:32:09.728Z,88.24
2022-08-20T07:33:08.709Z,87.67
2022-08-20T07:34:08.730Z,87.51
2022-08-20T07:35:08.867Z,87.65
2022-08-20T07:36:09.043Z,87.78
2022-08-20T07:37:09.398Z,87.92
2022-08-20T07:38:09.258Z,88.27
2022-08-20T07:39:09.448Z,88.09
2022-08-20T07:40:09.565Z,87.66
2022-08-20T07:41:09.610Z,87.36
2022-08-20T07:42:09.908Z,87.25
2022-08-20T07:43:09.868Z,87.28
2022-08-20T07:44:09.975Z,87.74
2022-08-20T07:45:10.067Z,86.98
2022-08-20T07:46:10.211Z,86.88
2022-08-20T07:47:10.526Z,87.20
2022-08-20T07:48:10.407Z,87.04
2022-08-20T07:49:10.566Z,86.93
2022-08-20T07:50:10.687Z,87.17
2022-08-20T07:51:10.822Z,86.12
2022-08-20T07:52:10.988Z,86.59
2022-08-20T07:53:11.388Z,86.56
2022-08-20T07:54:11.156Z,86.16
2022-08-20T07:55:11.238Z,86.77
2022-08-20T07:56:11.525Z,86.35
2022-08-20T07:57:11.448Z,87.03
2022-08-20T07:58:11.717Z,86.57
2022-08-20T07:59:11.716Z,86.99
2022-08-20T08:00:11.816Z,86.53
2022-08-20T08:01:11.996Z,86.47
2022-08-20T08:02:12.032Z,86.45
2022-08-20T08:03:12.255Z,86.18
2022-08-20T08:04:12.454Z,86.84
2022-08-20T08:05:12.403Z,87.26
2022-08-20T08:06:12.525Z,86.86
2022-08-20T08:07:12.664Z,87.09
2022-08-20T08:08:12.752Z,85.49
2022-08-20T08:09:12.973Z,85.61
2022-08-20T08:10:13.056Z,86.09
2022-08-20T08:11:13.161Z,86.04
2022-08-20T08:12:13.262Z,85.64
2022-08-20T08:13:13.362Z,85.49
2022-08-20T08:14:13.582Z,85.52
2022-08-20T08:15:13.633Z,85.66
2022-08-20T08:16:13.742Z,85.97
2022-08-20T08:17:13.850Z,85.51
2022-08-20T08:18:13.989Z,85.53
2022-08-20T08:19:14.222Z,86.14
2022-08-20T08:20:14.344Z,85.35
2022-08-20T08:21:14.341Z,85.18
2022-08-20T08:22:14.430Z,85.90
2022-08-20T08:23:24.629Z,85.48
2022-08-20T08:24:20.514Z,85.42
2022-08-20T08:25:15.872Z,85.66
2022-08-20T08:26:17.820Z,85.54
2022-08-20T08:27:15.012Z,86.26
2022-08-20T08:28:15.100Z,85.58
2022-08-20T08:29:15.266Z,84.97
2022-08-20T08:30:15.350Z,85.38
2022-08-20T08:31:15.649Z,85.46
2022-08-20T08:32:15.610Z,85.80
2022-08-20T08:33:15.720Z,85.67
2022-08-20T08:34:15.831Z,85.18
2022-08-20T08:35:15.951Z,85.69
2022-08-20T08:36:16.104Z,85.22
2022-08-20T08:37:16.363Z,84.46
2022-08-20T08:38:16.288Z,84.79
2022-08-20T08:39:16.458Z,85.35
2022-08-20T08:40:16.635Z,85.61
2022-08-20T08:41:16.840Z,85.83
2022-08-20T08:42:16.827Z,84.45
2022-08-20T08:43:17.318Z,84.39
2022-08-20T08:44:17.098Z,84.94
2022-08-20T08:45:17.228Z,84.20
2022-08-20T08:46:17.448Z,83.87
2022-08-20T08:47:17.496Z,83.83
2022-08-20T08:48:18.703Z,83.77
2022-08-20T08:49:17.745Z,85.01
2022-08-20T08:50:24.883Z,84.35
2022-08-20T08:51:18.996Z,83.63
2022-08-20T08:52:18.338Z,83.47
2022-08-20T08:53:18.196Z,83.01
2022-08-20T08:54:18.335Z,83.36
2022-08-20T08:55:18.493Z,83.45
2022-08-20T08:56:18.635Z,83.43
2022-08-20T08:57:18.685Z,83.25
2022-08-20T08:58:18.794Z,83.01
2022-08-20T08:59:18.889Z,83.05
2022-08-20T09:00:19.037Z,83.12
2022-08-20T09:01:55.063Z,83.21
2022-08-20T09:02:20.439Z,83.56
2022-08-20T09:03:19.403Z,84.35
2022-08-20T09:04:21.705Z,83.89
2022-08-20T09:05:19.695Z,83.69
2022-08-20T09:06:19.922Z,84.13
2022-08-20T09:07:19.909Z,83.99
2022-08-20T09:08:20.016Z,84.10
2022-08-20T09:09:20.104Z,83.81
2022-08-20T09:10:23.189Z,83.45
2022-08-20T09:11:20.443Z,84.51
2022-08-20T09:12:20.456Z,83.59
2022-08-20T09:13:20.544Z,83.12
2022-08-20T09:14:20.683Z,83.22
2022-08-20T09:15:20.799Z,82.85
2022-08-20T09:16:21.056Z,82.49
2022-08-20T09:17:21.063Z,82.33
2022-08-20T09:18:21.181Z,82.04
2022-08-20T09:19:21.313Z,82.05
2022-08-20T09:20:23.054Z,82.03
2022-08-20T09:21:22.640Z,81.62
2022-08-20T09:22:21.676Z,81.84
2022-08-20T09:23:21.765Z,81.95
2022-08-20T09:24:21.907Z,81.53
2022-08-20T09:25:22.063Z,81.42
2022-08-20T09:26:22.183Z,82.16
2022-08-20T09:27:23.380Z,81.78
2022-08-20T09:28:22.422Z,81.76
2022-08-20T09:29:22.521Z,82.57
2022-08-20T09:30:22.622Z,82.17
2022-08-20T09:31:22.771Z,82.75
2022-08-20T09:32:22.938Z,82.02
2022-08-20T09:33:23.015Z,82.59
2022-08-20T09:34:24.712Z,82.08
2022-08-20T09:35:23.243Z,81.84
2022-08-20T09:36:29.211Z,82.73
2022-08-20T09:37:24.711Z,81.75
2022-08-20T09:38:23.640Z,82.78
2022-08-20T09:39:23.740Z,82.01
2022-08-20T09:40:23.959Z,82.88
2022-08-20T09:41:24.034Z,82.27
2022-08-20T09:42:24.203Z,82.13
2022-08-20T09:43:24.349Z,81.19
2022-08-20T09:44:24.429Z,82.17
2022-08-20T09:45:24.583Z,80.86
2022-08-20T09:46:27.288Z,80.63
2022-08-20T09:47:24.778Z,80.96
2022-08-20T09:48:29.618Z,80.15
2022-08-20T09:49:26.018Z,81.21
2022-08-20T09:50:25.110Z,79.91
2022-08-20T09:51:25.200Z,80.89
2022-08-20T09:52:25.348Z,80.67
2022-08-20T09:53:25.529Z,80.00
2022-08-20T09:54:25.569Z,80.19
2022-08-20T09:55:25.694Z,81.13
2022-08-20T09:56:25.789Z,80.11
2022-08-20T09:57:25.933Z,79.61
2022-08-20T09:58:26.229Z,79.83
2022-08-20T09:59:26.359Z,79.12
2022-08-20T10:00:26.348Z,79.19
2022-08-20T10:01:26.526Z,80.39
2022-08-20T10:02:26.597Z,79.55
2022-08-20T10:03:26.718Z,79.71
2022-08-20T10:04:26.867Z,77.06
2022-08-20T10:05:26.986Z,76.71
2022-08-20T10:06:27.109Z,76.77
2022-08-20T10:07:27.195Z,77.51
2022-08-20T10:08:27.476Z,78.17
2022-08-20T10:09:27.457Z,77.04
2022-08-20T10:10:27.616Z,76.61
2022-08-20T10:11:27.758Z,76.86
2022-08-20T10:12:27.897Z,76.18
2022-08-20T10:13:28.077Z,74.07
2022-08-20T10:14:28.443Z,75.43
2022-08-20T10:15:28.245Z,73.74
2022-08-20T10:16:28.415Z,74.12
2022-08-20T10:17:28.527Z,74.83
2022-08-20T10:18:28.720Z,75.44
2022-08-20T10:19:28.760Z,75.41
2022-08-20T10:20:28.866Z,76.08
2022-08-20T10:21:29.006Z,76.62
2022-08-20T10:22:29.141Z,76.40
2022-08-20T10:23:29.335Z,75.24
2022-08-20T10:24:29.326Z,74.46
2022-08-20T10:25:29.436Z,74.18
2022-08-20T10:26:29.561Z,74.71
2022-08-20T10:27:29.656Z,73.31
2022-08-20T10:28:29.914Z,73.64
2022-08-20T10:29:30.005Z,73.24
2022-08-20T10:30:29.995Z,73.71
2022-08-20T10:31:30.103Z,72.88
2022-08-20T10:32:30.205Z,72.89
2022-08-20T10:33:30.295Z,72.01
2022-08-20T10:34:31.086Z,70.87
2022-08-20T10:35:30.534Z,71.91
2022-08-20T10:36:30.694Z,71.01
2022-08-20T10:37:30.792Z,70.91
2022-08-20T10:38:30.905Z,70.38
2022-08-20T10:39:31.540Z,69.74
2022-08-20T10:40:31.135Z,69.36
2022-08-20T10:41:31.292Z,71.41
2022-08-20T10:42:31.392Z,71.28
2022-08-20T10:43:31.502Z,70.14
2022-08-20T10:44:31.724Z,67.93
2022-08-20T10:45:31.724Z,68.11
2022-08-20T10:46:31.825Z,68.42
2022-08-20T10:47:31.926Z,68.45
2022-08-20T10:48:32.064Z,67.49
2022-08-20T10:49:32.303Z,66.96
2022-08-20T10:50:32.293Z,67.01
2022-08-20T10:51:33.088Z,67.82
2022-08-20T10:52:32.526Z,68.01
2022-08-20T10:53:32.634Z,68.74
2022-08-20T10:54:32.894Z,69.51
2022-08-20T10:55:32.874Z,69.18
2022-08-20T10:56:33.024Z,68.50
2022-08-20T10:57:33.183Z,69.22
2022-08-20T10:58:39.322Z,67.99
2022-08-20T10:59:34.544Z,67.27
2022-08-20T11:00:33.532Z,67.27
2022-08-20T11:01:36.669Z,66.66
2022-08-20T11:02:33.746Z,65.93
2022-08-20T11:03:33.863Z,66.08
2022-08-20T11:04:34.013Z,66.18
2022-08-20T11:05:34.261Z,66.61
2022-08-20T11:06:34.274Z,65.78
2022-08-20T11:07:55.271Z,67.50
2022-08-20T11:08:36.076Z,64.78
2022-08-20T11:09:34.873Z,63.98
2022-08-20T11:10:34.772Z,64.85
2022-08-20T11:11:34.883Z,64.30
2022-08-20T11:12:34.984Z,63.40
2022-08-20T11:13:35.115Z,62.86
2022-08-20T11:14:35.352Z,64.48
2022-08-20T11:15:35.342Z,63.62
2022-08-20T11:16:35.512Z,62.21
2022-08-20T11:17:37.138Z,62.41
2022-08-20T11:18:35.746Z,63.01
2022-08-20T11:19:35.972Z,62.90
2022-08-20T11:20:36.031Z,62.48
2022-08-20T11:21:36.200Z,63.41
2022-08-20T11:22:36.262Z,63.43
2022-08-20T11:23:36.413Z,63.38
2022-08-20T11:24:37.180Z,63.65
2022-08-20T11:25:36.682Z,63.62
2022-08-20T11:26:36.862Z,63.00
2022-08-20T11:27:36.950Z,62.74
2022-08-20T11:28:37.099Z,61.97
2022-08-20T11:29:37.470Z,63.20
2022-08-20T11:30:37.411Z,62.85
2022-08-20T11:31:37.520Z,62.18
2022-08-20T11:32:37.632Z,61.82
2022-08-20T11:33:37.740Z,62.36
2022-08-20T11:34:37.954Z,61.88
2022-08-20T11:35:48.696Z,61.83
2022-08-20T11:36:39.067Z,60.08
2022-08-20T11:37:38.221Z,60.58
2022-08-20T11:38:38.308Z,60.79
2022-08-20T11:39:41.707Z,61.36
2022-08-20T11:40:38.601Z,60.95
2022-08-20T11:41:38.701Z,60.34
2022-08-20T11:42:53.229Z,62.51
2022-08-20T11:43:39.929Z,60.48
2022-08-20T11:44:39.157Z,60.42
2022-08-20T11:45:39.219Z,60.47
2022-08-20T11:46:39.469Z,60.30
2022-08-20T11:47:39.457Z,58.86
2022-08-20T11:48:39.604Z,59.06
2022-08-20T11:49:39.759Z,59.17
2022-08-20T11:50:39.859Z,59.94
2022-08-20T11:51:49.830Z,58.97
2022-08-20T11:52:41.149Z,58.91
2022-08-20T11:53:40.299Z,59.04
2022-08-20T11:54:40.450Z,59.59
2022-08-20T11:55:40.549Z,58.31
2022-08-20T11:56:40.794Z,58.93
2022-08-20T11:57:41.847Z,58.46
2022-08-20T11:58:40.978Z,58.70
2022-08-20T11:59:41.134Z,58.90
2022-08-20T12:00:41.268Z,59.28
2022-08-20T12:01:41.506Z,59.37
2022-08-20T12:02:42.623Z,58.10
2022-08-20T12:03:41.693Z,58.32
2022-08-20T12:04:41.838Z,58.21
2022-08-20T12:05:41.999Z,58.58
2022-08-20T12:06:42.185Z,59.26
2022-08-20T12:07:42.418Z,60.11
2022-08-20T12:08:42.349Z,58.66
2022-08-20T12:09:50.436Z,56.76
2022-08-20T12:10:43.638Z,57.85
2022-08-20T12:11:42.732Z,58.52
2022-08-20T12:12:42.978Z,59.19
2022-08-20T12:13:48.906Z,57.52
2022-08-20T12:14:44.098Z,57.43
2022-08-20T12:15:43.198Z,54.86
2022-08-20T12:16:43.324Z,56.70
2022-08-20T12:17:43.645Z,57.99
2022-08-20T12:18:43.528Z,55.51
2022-08-20T12:19:43.677Z,55.02
2022-08-20T12:20:43.838Z,54.50
2022-08-20T12:21:43.999Z,54.77
2022-08-20T12:22:44.185Z,53.84
2022-08-20T12:23:44.285Z,53.83
2022-08-20T12:24:44.267Z,54.14
2022-08-20T12:25:44.397Z,57.71
2022-08-20T12:26:44.503Z,53.03
2022-08-20T12:27:44.797Z,58.14
2022-08-20T12:28:44.805Z,56.19
2022-08-20T12:29:44.908Z,53.94
2022-08-20T12:30:45.018Z,50.57
2022-08-20T12:31:45.122Z,51.35
2022-08-20T12:32:45.327Z,52.13
2022-08-20T12:33:45.597Z,52.43
2022-08-20T12:34:45.437Z,54.16
2022-08-20T12:35:45.536Z,50.44
2022-08-20T12:36:45.692Z,50.80
2022-08-20T12:37:45.857Z,51.09
2022-08-20T12:38:46.065Z,50.54
2022-08-20T12:39:46.062Z,52.09
2022-08-20T12:40:46.136Z,50.27
2022-08-20T12:41:46.244Z,49.46
2022-08-20T12:42:46.337Z,48.66
2022-08-20T12:43:46.776Z,49.42
2022-08-20T12:44:46.667Z,50.09
2022-08-20T12:45:46.706Z,50.82
2022-08-20T12:46:46.858Z,49.80
2022-08-20T12:47:46.967Z,51.58
2022-08-20T12:48:47.216Z,52.66
2022-08-20T12:49:47.225Z,52.29
2022-08-20T12:50:47.329Z,52.53
2022-08-20T12:51:47.445Z,50.78
2022-08-20T12:52:47.536Z,50.46
2022-08-20T12:53:47.806Z,52.28